Time;durP1;ratioP1;P1;durP2;ratioP2;P2;SDS_P1;SDS_P2;PMS_P1;PMS_P2;Temp;Humidity;BMP_temperature;BMP_pressure;BME280_temperature;BME280_humidity;BME280_pressure;Samples;Min_cycle;Max_cycle;Signal;HPM_P1;HPM_P2
2023/08/21 00:00:18;;;;;;;48.75;32.80;;;;;;;;;;5079263;28;20048;-83
2023/08/21 00:02:46;;;;;;;62.28;35.40;;;;;;;;;;5080375;28;20076;-83
2023/08/21 00:05:13;;;;;;;46.25;30.65;;;;;;;;;;5078841;28;20045;-83
2023/08/21 00:07:40;;;;;;;38.10;30.67;;;;;;;;;;5080460;28;20044;-83
2023/08/21 00:10:09;;;;;;;45.15;32.40;;;;;;;;;;5082570;28;20388;-83
2023/08/21 00:12:37;;;;;;;43.83;32.45;;;;;;;;;;5078495;28;20052;-83
2023/08/21 00:15:04;;;;;;;52.20;34.05;;;;;;;;;;5078986;28;20045;-83
2023/08/21 00:17:32;;;;;;;42.13;31.45;;;;;;;;;;5077367;28;20105;-83
2023/08/21 00:20:00;;;;;;;46.60;33.22;;;;;;;;;;5078960;28;20067;-83
2023/08/21 00:22:27;;;;;;;52.13;34.78;;;;;;;;;;5077623;28;20510;-83
2023/08/21 00:24:54;;;;;;;44.60;32.75;;;;;;;;;;5073231;28;20049;-82
2023/08/21 00:27:21;;;;;;;46.67;32.70;;;;;;;;;;5073622;28;20055;-82
2023/08/21 00:29:49;;;;;;;59.30;35.75;;;;;;;;;;5072227;28;20051;-82
2023/08/21 00:32:16;;;;;;;44.55;32.58;;;;;;;;;;5073151;28;20110;-82
2023/08/21 00:34:43;;;;;;;59.15;36.17;;;;;;;;;;5073814;28;20457;-82
2023/08/21 00:37:11;;;;;;;60.83;37.67;;;;;;;;;;5075383;28;20052;-82
2023/08/21 00:39:38;;;;;;;58.47;37.38;;;;;;;;;;5079381;28;20044;-83
2023/08/21 00:42:07;;;;;;;52.88;35.45;;;;;;;;;;5077729;28;20045;-83
2023/08/21 00:44:34;;;;;;;46.83;33.95;;;;;;;;;;5079091;28;20048;-83
2023/08/21 00:47:01;;;;;;;64.65;38.15;;;;;;;;;;5078520;28;20071;-82
2023/08/21 00:49:29;;;;;;;52.33;34.70;;;;;;;;;;5079373;28;20078;-83
2023/08/21 00:51:56;;;;;;;52.63;34.53;;;;;;;;;;5078968;28;20423;-83
2023/08/21 00:54:24;;;;;;;47.03;33.90;;;;;;;;;;5078997;28;20044;-83
2023/08/21 00:56:52;;;;;;;49.13;33.60;;;;;;;;;;5080202;28;20071;-83
2023/08/21 00:59:20;;;;;;;50.90;34.10;;;;;;;;;;5077994;28;20041;-83
2023/08/21 01:01:47;;;;;;;52.42;35.53;;;;;;;;;;5078838;28;20506;-83
2023/08/21 01:04:15;;;;;;;51.55;34.45;;;;;;;;;;5077875;28;20045;-83
2023/08/21 01:06:42;;;;;;;54.42;35.53;;;;;;;;;;5078088;28;20118;-83
2023/08/21 01:09:13;;;;;;;48.53;34.72;;;;;;;;;;5077643;28;20053;-83
2023/08/21 01:11:44;;;;;;;43.10;33.60;;;;;;;;;;5078257;28;20460;-83
2023/08/21 01:14:25;;;;;;;44.25;32.17;;;;;;;;;;5077779;28;20056;-83
2023/08/21 01:16:53;;;;;;;41.97;31.67;;;;;;;;;;5078861;28;20102;-83
2023/08/21 01:19:27;;;;;;;44.13;32.45;;;;;;;;;;5079171;28;20044;-83
2023/08/21 01:21:54;;;;;;;42.10;30.63;;;;;;;;;;5078930;28;20052;-83
2023/08/21 01:24:21;;;;;;;45.70;31.05;;;;;;;;;;5079315;28;20055;-83
2023/08/21 01:26:48;;;;;;;44.08;32.08;;;;;;;;;;5079145;28;20049;-83
2023/08/21 01:29:16;;;;;;;45.28;33.63;;;;;;;;;;5081394;28;20056;-83
2023/08/21 01:31:47;;;;;;;46.80;33.10;;;;;;;;;;5082417;28;20045;-83
2023/08/21 01:34:15;;;;;;;47.17;32.25;;;;;;;;;;5084427;28;20132;-84
2023/08/21 01:36:43;;;;;;;45.25;32.67;;;;;;;;;;5084082;28;20078;-83
2023/08/21 01:39:10;;;;;;;44.97;32.58;;;;;;;;;;5086273;28;20052;-82
2023/08/21 01:41:38;;;;;;;45.70;33.72;;;;;;;;;;5085845;28;20067;-83
2023/08/21 01:44:05;;;;;;;48.40;32.97;;;;;;;;;;5089848;28;20052;-83
2023/08/21 01:46:32;;;;;;;46.05;32.65;;;;;;;;;;5085838;28;20045;-83
2023/08/21 01:48:59;;;;;;;63.67;39.17;;;;;;;;;;5085888;28;20079;-83
2023/08/21 01:51:26;;;;;;;74.07;41.22;;;;;;;;;;5091581;28;20028;-83
2023/08/21 01:53:54;;;;;;;78.53;42.72;;;;;;;;;;5093934;28;20067;-83
2023/08/21 01:56:21;;;;;;;58.05;38.22;;;;;;;;;;5093572;28;20079;-83
2023/08/21 01:58:48;;;;;;;65.75;38.47;;;;;;;;;;5097281;28;20032;-83
2023/08/21 02:01:17;;;;;;;52.13;35.70;;;;;;;;;;5095266;28;20056;-83
2023/08/21 02:03:45;;;;;;;48.92;35.00;;;;;;;;;;5096320;28;20054;-83
2023/08/21 02:06:13;;;;;;;57.00;37.28;;;;;;;;;;5089741;28;20404;-82
2023/08/21 02:08:40;;;;;;;44.25;32.35;;;;;;;;;;5082085;28;20079;-83
2023/08/21 02:11:07;;;;;;;46.50;34.25;;;;;;;;;;5081440;28;20497;-83
2023/08/21 02:13:34;;;;;;;52.88;34.67;;;;;;;;;;5080840;28;20098;-83
2023/08/21 02:16:01;;;;;;;54.15;35.92;;;;;;;;;;5080451;28;20045;-82
2023/08/21 02:18:29;;;;;;;56.58;34.58;;;;;;;;;;5079625;28;20048;-83
2023/08/21 02:20:56;;;;;;;51.33;34.78;;;;;;;;;;5087475;28;20078;-83
2023/08/21 02:23:24;;;;;;;43.13;32.35;;;;;;;;;;5091810;28;20059;-83
2023/08/21 02:25:51;;;;;;;47.47;33.80;;;;;;;;;;5085647;28;20044;-83
2023/08/21 02:28:19;;;;;;;40.88;31.83;;;;;;;;;;5084377;28;20141;-83
2023/08/21 02:30:46;;;;;;;39.40;31.58;;;;;;;;;;5081708;28;20048;-83
2023/08/21 02:33:13;;;;;;;42.72;32.53;;;;;;;;;;5083976;28;20121;-83
2023/08/21 02:35:40;;;;;;;49.67;33.60;;;;;;;;;;5082114;28;20041;-83
2023/08/21 02:38:08;;;;;;;50.10;34.55;;;;;;;;;;5079919;28;20079;-83
2023/08/21 02:40:35;;;;;;;44.92;31.88;;;;;;;;;;5082090;28;20090;-83
2023/08/21 02:43:02;;;;;;;47.47;33.55;;;;;;;;;;5081670;28;20131;-83
2023/08/21 02:45:30;;;;;;;54.30;35.38;;;;;;;;;;5081614;28;20048;-82
2023/08/21 02:47:57;;;;;;;51.70;35.35;;;;;;;;;;5079144;28;20462;-83
2023/08/21 02:50:25;;;;;;;44.25;32.28;;;;;;;;;;5079901;28;20510;-83
2023/08/21 02:52:52;;;;;;;41.60;33.35;;;;;;;;;;5082004;28;20139;-83
2023/08/21 02:55:20;;;;;;;40.92;32.38;;;;;;;;;;5082545;28;20040;-83
2023/08/21 02:57:47;;;;;;;45.72;33.22;;;;;;;;;;5082994;28;20041;-83
2023/08/21 03:00:15;;;;;;;43.33;32.63;;;;;;;;;;5080188;28;20055;-83
2023/08/21 03:02:42;;;;;;;49.55;34.20;;;;;;;;;;5079381;28;20052;-83
2023/08/21 03:05:11;;;;;;;52.08;34.00;;;;;;;;;;5078281;28;20044;-83
2023/08/21 03:07:39;;;;;;;47.50;34.97;;;;;;;;;;5079051;28;20055;-83
2023/08/21 03:10:07;;;;;;;43.30;32.03;;;;;;;;;;5077216;28;20473;-83
2023/08/21 03:12:34;;;;;;;43.45;34.42;;;;;;;;;;5078296;28;20532;-83
2023/08/21 03:15:01;;;;;;;44.60;32.30;;;;;;;;;;5078835;28;20045;-83
2023/08/21 03:17:29;;;;;;;44.67;32.03;;;;;;;;;;5076737;28;20135;-83
2023/08/21 03:19:56;;;;;;;38.03;29.95;;;;;;;;;;5079786;28;20048;-83
2023/08/21 03:22:23;;;;;;;42.90;31.70;;;;;;;;;;5086072;28;20048;-84
2023/08/21 03:24:50;;;;;;;43.10;31.83;;;;;;;;;;5082032;28;20052;-83
2023/08/21 03:27:19;;;;;;;43.95;32.15;;;;;;;;;;5082261;28;20074;-83
2023/08/21 03:29:48;;;;;;;46.38;31.02;;;;;;;;;;5081882;28;20052;-83
2023/08/21 03:32:16;;;;;;;42.95;32.80;;;;;;;;;;5083769;28;20715;-83
2023/08/21 03:34:44;;;;;;;40.90;31.90;;;;;;;;;;5075720;28;20055;-83
2023/08/21 03:37:11;;;;;;;33.95;28.17;;;;;;;;;;5074970;28;20052;-83
2023/08/21 03:39:39;;;;;;;37.97;30.10;;;;;;;;;;5075594;28;20044;-83
2023/08/21 03:42:06;;;;;;;39.95;30.10;;;;;;;;;;5075474;28;20055;-83
2023/08/21 03:44:33;;;;;;;39.83;29.63;;;;;;;;;;5075928;28;20049;-83
2023/08/21 03:47:00;;;;;;;43.65;31.83;;;;;;;;;;5073704;28;20056;-83
2023/08/21 03:49:28;;;;;;;40.65;29.10;;;;;;;;;;5073794;28;20075;-83
2023/08/21 03:51:55;;;;;;;38.03;29.42;;;;;;;;;;5074755;28;20056;-83
2023/08/21 03:54:22;;;;;;;40.50;29.00;;;;;;;;;;5076818;28;20071;-83
2023/08/21 03:56:49;;;;;;;37.60;28.80;;;;;;;;;;5075929;28;20045;-83
2023/08/21 03:59:16;;;;;;;38.08;28.95;;;;;;;;;;5073117;28;20072;-83
2023/08/21 04:01:44;;;;;;;33.67;27.83;;;;;;;;;;5074403;28;20507;-83
2023/08/21 04:04:11;;;;;;;42.15;31.45;;;;;;;;;;5075934;28;20048;-83
2023/08/21 04:06:38;;;;;;;39.55;31.25;;;;;;;;;;5074808;28;20052;-83
2023/08/21 04:09:06;;;;;;;40.83;32.35;;;;;;;;;;5075209;28;20048;-83
2023/08/21 04:11:33;;;;;;;41.13;30.27;;;;;;;;;;5075552;28;20137;-83
2023/08/21 04:14:00;;;;;;;50.58;35.63;;;;;;;;;;5078184;28;20052;-83
2023/08/21 04:16:28;;;;;;;44.95;31.70;;;;;;;;;;5073930;28;20049;-83
2023/08/21 04:18:55;;;;;;;49.25;34.15;;;;;;;;;;5075580;28;20048;-83
2023/08/21 04:21:23;;;;;;;52.42;36.22;;;;;;;;;;5077126;28;20078;-83
2023/08/21 04:23:51;;;;;;;61.20;37.67;;;;;;;;;;5075899;28;20041;-83
2023/08/21 04:26:19;;;;;;;50.97;35.60;;;;;;;;;;5074289;28;20117;-83
2023/08/21 04:28:47;;;;;;;57.65;38.15;;;;;;;;;;5073342;28;20059;-83
2023/08/21 04:31:14;;;;;;;48.38;35.13;;;;;;;;;;5075607;28;20056;-83
2023/08/21 04:33:41;;;;;;;51.15;35.78;;;;;;;;;;5076364;28;20088;-83
2023/08/21 04:36:14;;;;;;;46.72;35.33;;;;;;;;;;5074500;28;20045;-83
2023/08/21 04:38:42;;;;;;;55.25;35.60;;;;;;;;;;5074230;28;20056;-82
2023/08/21 04:41:10;;;;;;;52.30;35.55;;;;;;;;;;5074424;28;20071;-83
2023/08/21 04:43:37;;;;;;;61.55;38.53;;;;;;;;;;5077739;28;20095;-84
2023/08/21 04:46:05;;;;;;;48.65;34.67;;;;;;;;;;5080511;28;20063;-83
2023/08/21 04:48:32;;;;;;;44.97;33.15;;;;;;;;;;5082246;28;20071;-84
2023/08/21 04:51:00;;;;;;;50.10;34.53;;;;;;;;;;5081613;28;20044;-83
2023/08/21 04:53:27;;;;;;;44.20;31.90;;;;;;;;;;5080455;28;20052;-83
2023/08/21 04:55:54;;;;;;;46.65;32.85;;;;;;;;;;5079647;28;20048;-83
2023/08/21 04:58:21;;;;;;;44.60;31.75;;;;;;;;;;5082246;28;20048;-83
2023/08/21 05:00:49;;;;;;;49.50;33.97;;;;;;;;;;5083986;28;20040;-83
2023/08/21 05:03:16;;;;;;;46.35;32.85;;;;;;;;;;5085615;28;20064;-84
2023/08/21 05:05:52;;;;;;;50.92;33.17;;;;;;;;;;5082237;28;20048;-83
2023/08/21 05:08:20;;;;;;;55.05;33.67;;;;;;;;;;5078821;28;20044;-84
2023/08/21 05:10:47;;;;;;;48.85;32.75;;;;;;;;;;5082992;28;20161;-83
2023/08/21 05:13:17;;;;;;;45.80;29.67;;;;;;;;;;5082114;28;20044;-83
2023/08/21 05:15:44;;;;;;;34.97;27.38;;;;;;;;;;5080371;28;20498;-83
2023/08/21 05:18:12;;;;;;;37.13;27.00;;;;;;;;;;5090490;28;20044;-83
2023/08/21 05:20:39;;;;;;;34.58;27.90;;;;;;;;;;5087347;28;20033;-83
2023/08/21 05:23:06;;;;;;;34.72;26.63;;;;;;;;;;5081904;28;20048;-83
2023/08/21 05:25:34;;;;;;;32.95;26.27;;;;;;;;;;5081733;28;20045;-83
2023/08/21 05:28:01;;;;;;;31.65;26.27;;;;;;;;;;5081239;28;20048;-83
2023/08/21 05:30:28;;;;;;;28.40;24.83;;;;;;;;;;5082522;28;20053;-83
2023/08/21 05:32:55;;;;;;;30.77;25.10;;;;;;;;;;5081880;28;20481;-83
2023/08/21 05:35:23;;;;;;;27.40;24.15;;;;;;;;;;5088895;28;20131;-83
2023/08/21 05:37:50;;;;;;;31.13;24.50;;;;;;;;;;5084232;28;20094;-83
2023/08/21 05:40:20;;;;;;;31.80;24.38;;;;;;;;;;5083992;28;20044;-84
2023/08/21 05:42:47;;;;;;;28.42;24.40;;;;;;;;;;5081615;28;20071;-83
2023/08/21 05:45:15;;;;;;;28.65;23.95;;;;;;;;;;5081422;28;20048;-83
2023/08/21 05:47:42;;;;;;;29.23;25.05;;;;;;;;;;5081048;28;20048;-83
2023/08/21 05:50:09;;;;;;;30.58;25.08;;;;;;;;;;5080787;28;20067;-83
2023/08/21 05:52:37;;;;;;;32.58;24.15;;;;;;;;;;5082539;28;20495;-83
2023/08/21 05:55:09;;;;;;;25.92;22.88;;;;;;;;;;5082063;28;20049;-84
2023/08/21 05:57:37;;;;;;;26.92;23.98;;;;;;;;;;5082401;28;20200;-84
2023/08/21 06:00:08;;;;;;;25.35;22.65;;;;;;;;;;5079322;28;20078;-83
2023/08/21 06:02:35;;;;;;;23.33;20.83;;;;;;;;;;5082166;28;20060;-83
2023/08/21 06:05:03;;;;;;;21.55;19.35;;;;;;;;;;5080238;28;20052;-83
2023/08/21 06:07:30;;;;;;;23.05;20.58;;;;;;;;;;5080130;28;20051;-83
2023/08/21 06:09:57;;;;;;;21.40;19.23;;;;;;;;;;5080098;28;20051;-83
2023/08/21 06:12:24;;;;;;;23.33;19.20;;;;;;;;;;5077543;28;20052;-83
2023/08/21 06:14:52;;;;;;;20.55;18.55;;;;;;;;;;5079469;28;20048;-83
2023/08/21 06:17:19;;;;;;;20.58;18.58;;;;;;;;;;5080311;28;20102;-84
2023/08/21 06:19:46;;;;;;;21.67;19.38;;;;;;;;;;5079828;28;20094;-83
2023/08/21 06:22:15;;;;;;;21.42;19.23;;;;;;;;;;5081002;28;20076;-83
2023/08/21 06:24:42;;;;;;;21.45;19.20;;;;;;;;;;5080973;28;20102;-84
2023/08/21 06:27:09;;;;;;;22.73;20.33;;;;;;;;;;5082487;28;20126;-83
2023/08/21 06:29:40;;;;;;;20.45;18.40;;;;;;;;;;5080103;28;20056;-83
2023/08/21 06:32:07;;;;;;;19.42;17.60;;;;;;;;;;5079558;28;20110;-83
2023/08/21 06:34:35;;;;;;;19.52;17.52;;;;;;;;;;5078763;28;20052;-84
2023/08/21 06:37:02;;;;;;;18.77;16.88;;;;;;;;;;5087379;28;20044;-84
2023/08/21 06:39:29;;;;;;;17.65;16.05;;;;;;;;;;5085204;28;20044;-84
2023/08/21 06:41:56;;;;;;;17.45;15.85;;;;;;;;;;5088750;28;20048;-82
2023/08/21 06:44:23;;;;;;;18.40;16.70;;;;;;;;;;5084260;28;20102;-82
2023/08/21 06:46:51;;;;;;;19.75;16.90;;;;;;;;;;5081296;28;20057;-81
2023/08/21 06:49:18;;;;;;;23.35;18.52;;;;;;;;;;5082849;28;20160;-82
2023/08/21 06:51:45;;;;;;;29.40;20.48;;;;;;;;;;5079793;28;20052;-82
2023/08/21 06:54:12;;;;;;;22.83;20.40;;;;;;;;;;5077203;28;20125;-84
2023/08/21 06:56:40;;;;;;;25.23;22.48;;;;;;;;;;5077190;28;20509;-84
2023/08/21 06:59:07;;;;;;;26.98;23.83;;;;;;;;;;5075585;28;20049;-84
2023/08/21 07:01:34;;;;;;;27.42;23.50;;;;;;;;;;5075165;28;20049;-82
2023/08/21 07:04:02;;;;;;;28.10;24.42;;;;;;;;;;5077260;28;20052;-84
2023/08/21 07:06:31;;;;;;;29.98;26.77;;;;;;;;;;5075612;28;20557;-83
2023/08/21 07:08:58;;;;;;;30.13;25.75;;;;;;;;;;5075302;28;20059;-83
2023/08/21 07:11:25;;;;;;;26.98;24.10;;;;;;;;;;5078293;28;20110;-82
2023/08/21 07:13:52;;;;;;;25.10;22.40;;;;;;;;;;5078183;28;20044;-81
2023/08/21 07:16:20;;;;;;;23.50;21.00;;;;;;;;;;5078498;28;20055;-82
2023/08/21 07:18:47;;;;;;;27.60;21.88;;;;;;;;;;5077054;28;20040;-82
2023/08/21 07:21:14;;;;;;;33.35;22.83;;;;;;;;;;5075095;28;20126;-81
2023/08/21 07:23:58;;;;;;;23.40;21.10;;;;;;;;;;5074133;28;20457;-81
2023/08/21 07:26:26;;;;;;;23.23;20.63;;;;;;;;;;5075618;28;20048;-81
2023/08/21 07:28:53;;;;;;;22.88;20.55;;;;;;;;;;5074473;28;20045;-84
2023/08/21 07:31:21;;;;;;;22.92;20.63;;;;;;;;;;5076132;28;20052;-83
2023/08/21 07:33:48;;;;;;;22.02;19.83;;;;;;;;;;5075736;28;20044;-81
2023/08/21 07:36:17;;;;;;;22.52;20.13;;;;;;;;;;5058704;28;20082;-83
2023/08/21 07:38:44;;;;;;;21.60;16.50;;;;;;;;;;5075063;28;20041;-81
2023/08/21 07:41:12;;;;;;;21.08;18.33;;;;;;;;;;5075935;28;20048;-81
2023/08/21 07:43:41;;;;;;;21.55;17.30;;;;;;;;;;5077508;28;20423;-81
2023/08/21 07:46:12;;;;;;;20.98;17.73;;;;;;;;;;5074136;28;20052;-83
2023/08/21 07:48:39;;;;;;;21.17;18.27;;;;;;;;;;5074400;28;20049;-82
2023/08/21 07:51:07;;;;;;;19.83;17.50;;;;;;;;;;5082382;28;20423;-83
2023/08/21 07:53:34;;;;;;;20.67;18.20;;;;;;;;;;5079348;28;20465;-83
2023/08/21 07:56:03;;;;;;;21.02;18.55;;;;;;;;;;5078928;28;20055;-82
2023/08/21 07:58:31;;;;;;;22.38;17.15;;;;;;;;;;5079712;28;20110;-83
2023/08/21 08:01:01;;;;;;;18.67;16.77;;;;;;;;;;5079973;28;20052;-82
2023/08/21 08:03:28;;;;;;;19.42;16.90;;;;;;;;;;5077995;28;20048;-82
2023/08/21 08:05:56;;;;;;;16.63;14.93;;;;;;;;;;5075532;28;20048;-82
2023/08/21 08:08:23;;;;;;;16.30;14.60;;;;;;;;;;5075219;28;20131;-82
2023/08/21 08:10:50;;;;;;;16.85;14.95;;;;;;;;;;5080582;28;20049;-82
2023/08/21 08:13:17;;;;;;;15.57;14.13;;;;;;;;;;5084846;28;20094;-82
2023/08/21 08:15:45;;;;;;;19.00;17.30;;;;;;;;;;5085267;28;20052;-83
2023/08/21 08:18:13;;;;;;;17.15;15.43;;;;;;;;;;5092209;28;20046;-82
2023/08/21 08:20:40;;;;;;;15.85;14.30;;;;;;;;;;5087143;28;20076;-83
2023/08/21 08:23:08;;;;;;;16.73;15.07;;;;;;;;;;5083714;28;20059;-82
2023/08/21 08:25:35;;;;;;;18.67;15.35;;;;;;;;;;5079419;28;20056;-82
2023/08/21 08:28:03;;;;;;;16.30;14.77;;;;;;;;;;5077845;28;20059;-83
2023/08/21 08:30:30;;;;;;;16.88;14.60;;;;;;;;;;5078301;28;20064;-82
2023/08/21 08:32:57;;;;;;;21.58;16.40;;;;;;;;;;5073921;28;20483;-81
2023/08/21 08:35:24;;;;;;;18.10;16.08;;;;;;;;;;5073286;28;20530;-82
2023/08/21 08:37:52;;;;;;;16.73;15.20;;;;;;;;;;5072592;28;20422;-82
2023/08/21 08:40:19;;;;;;;17.73;15.82;;;;;;;;;;5073655;28;20103;-81
2023/08/21 08:42:46;;;;;;;17.55;15.70;;;;;;;;;;5075868;28;20481;-81
2023/08/21 08:45:14;;;;;;;14.80;13.50;;;;;;;;;;5074471;28;20048;-81
2023/08/21 08:47:42;;;;;;;17.58;15.68;;;;;;;;;;5075836;28;20440;-82
2023/08/21 08:50:10;;;;;;;15.45;13.85;;;;;;;;;;5075738;28;20506;-82
2023/08/21 08:52:38;;;;;;;16.38;14.77;;;;;;;;;;5078283;28;20507;-81
2023/08/21 08:55:06;;;;;;;14.70;13.20;;;;;;;;;;5074955;28;20110;-82
2023/08/21 08:57:34;;;;;;;15.52;13.73;;;;;;;;;;5075146;28;20062;-81
2023/08/21 09:00:03;;;;;;;14.52;13.10;;;;;;;;;;5074959;28;20422;-81
2023/08/21 09:02:30;;;;;;;13.68;12.35;;;;;;;;;;5077303;28;20048;-81
2023/08/21 09:04:58;;;;;;;14.32;13.02;;;;;;;;;;5075215;28;20045;-82
2023/08/21 09:07:26;;;;;;;15.20;13.80;;;;;;;;;;5074227;28;20060;-82
2023/08/21 09:09:53;;;;;;;14.55;13.07;;;;;;;;;;5076616;28;20098;-82
2023/08/21 09:12:21;;;;;;;15.00;11.93;;;;;;;;;;5076867;28;20121;-82
2023/08/21 09:14:48;;;;;;;11.55;10.18;;;;;;;;;;5074961;28;20126;-81
2023/08/21 09:17:16;;;;;;;15.13;13.63;;;;;;;;;;5077167;28;20469;-81
2023/08/21 09:19:44;;;;;;;14.00;12.60;;;;;;;;;;5075268;28;20041;-81
2023/08/21 09:22:12;;;;;;;13.02;11.73;;;;;;;;;;5076508;28;20106;-82
2023/08/21 09:24:40;;;;;;;12.15;10.95;;;;;;;;;;5076176;28;20094;-82
2023/08/21 09:27:17;;;;;;;11.93;10.82;;;;;;;;;;5075744;28;20049;-80
2023/08/21 09:29:46;;;;;;;13.75;12.48;;;;;;;;;;5075000;28;20048;-80
2023/08/21 09:32:15;;;;;;;15.00;13.30;;;;;;;;;;5075060;28;20052;-82
2023/08/21 09:34:43;;;;;;;13.18;11.98;;;;;;;;;;5074845;28;20101;-81
2023/08/21 09:37:10;;;;;;;15.80;12.15;;;;;;;;;;5074885;28;20423;-82
2023/08/21 09:39:38;;;;;;;16.00;12.35;;;;;;;;;;5076627;28;20044;-82
2023/08/21 09:42:08;;;;;;;12.57;11.45;;;;;;;;;;5075344;28;20048;-81
2023/08/21 09:44:36;;;;;;;13.50;12.20;;;;;;;;;;5075071;28;20422;-82
2023/08/21 09:47:04;;;;;;;13.93;10.20;;;;;;;;;;5075552;28;20079;-81
2023/08/21 09:49:33;;;;;;;17.13;11.90;;;;;;;;;;5080466;28;20049;-82
2023/08/21 09:52:01;;;;;;;11.68;9.93;;;;;;;;;;5082569;28;20067;-81
2023/08/21 09:54:28;;;;;;;11.38;10.27;;;;;;;;;;5083780;28;20461;-82
2023/08/21 09:56:56;;;;;;;11.48;10.48;;;;;;;;;;5083381;28;20052;-83
2023/08/21 09:59:24;;;;;;;12.68;10.02;;;;;;;;;;5083172;28;20074;-83
2023/08/21 10:01:52;;;;;;;11.65;10.07;;;;;;;;;;5080084;28;20090;-83
2023/08/21 10:04:22;;;;;;;10.02;9.05;;;;;;;;;;5080019;28;20110;-82
2023/08/21 10:06:52;;;;;;;12.93;9.68;;;;;;;;;;5079587;28;20560;-82
2023/08/21 10:09:20;;;;;;;13.18;8.57;;;;;;;;;;5079256;28;20049;-81
2023/08/21 10:11:48;;;;;;;8.93;8.23;;;;;;;;;;5077090;28;20106;-82
2023/08/21 10:14:16;;;;;;;10.13;9.13;;;;;;;;;;5078032;28;20135;-81
2023/08/21 10:16:43;;;;;;;11.05;8.70;;;;;;;;;;5083801;28;20045;-81
2023/08/21 10:19:14;;;;;;;8.75;7.43;;;;;;;;;;5078333;28;20411;-82
2023/08/21 10:21:41;;;;;;;8.95;8.10;;;;;;;;;;5079843;28;20032;-83
2023/08/21 10:24:09;;;;;;;7.72;7.13;;;;;;;;;;5078580;28;20483;-82
2023/08/21 10:26:40;;;;;;;10.27;7.97;;;;;;;;;;5079477;28;20048;-82
2023/08/21 10:29:08;;;;;;;9.18;7.63;;;;;;;;;;5080138;28;20049;-82
2023/08/21 10:31:38;;;;;;;7.75;7.03;;;;;;;;;;5084082;28;20045;-82
2023/08/21 10:34:15;;;;;;;7.40;6.80;;;;;;;;;;5081088;28;20102;-83
2023/08/21 10:36:45;;;;;;;9.52;7.30;;;;;;;;;;5081083;28;20105;-82
2023/08/21 10:39:14;;;;;;;8.32;6.72;;;;;;;;;;5081700;28;20075;-81
2023/08/21 10:41:42;;;;;;;7.40;6.70;;;;;;;;;;5082908;28;20045;-82
2023/08/21 10:44:09;;;;;;;7.57;6.72;;;;;;;;;;5082847;28;20544;-82
2023/08/21 10:46:52;;;;;;;6.45;5.90;;;;;;;;;;5080756;28;20044;-81
2023/08/21 10:49:19;;;;;;;7.82;6.88;;;;;;;;;;5081246;28;20062;-81
2023/08/21 10:51:46;;;;;;;6.20;5.70;;;;;;;;;;5082033;28;20110;-82
2023/08/21 10:54:14;;;;;;;6.60;6.10;;;;;;;;;;5080673;28;20048;-82
2023/08/21 10:56:41;;;;;;;6.82;6.13;;;;;;;;;;5080571;28;20102;-82
2023/08/21 10:59:09;;;;;;;7.80;7.03;;;;;;;;;;5079111;28;20449;-82
2023/08/21 11:01:44;;;;;;;7.05;6.45;;;;;;;;;;5079876;28;20040;-81
2023/08/21 11:04:12;;;;;;;6.10;5.60;;;;;;;;;;5082165;28;20055;-83
2023/08/21 11:06:40;;;;;;;9.60;5.72;;;;;;;;;;5081181;28;20082;-82
2023/08/21 11:09:13;;;;;;;6.10;5.60;;;;;;;;;;5082249;28;20052;-82
2023/08/21 11:11:40;;;;;;;5.90;5.35;;;;;;;;;;5085083;28;20465;-82
2023/08/21 11:14:07;;;;;;;6.38;4.82;;;;;;;;;;5081548;28;20052;-81
2023/08/21 11:16:34;;;;;;;5.25;4.82;;;;;;;;;;5081404;28;20055;-83
2023/08/21 11:19:05;;;;;;;6.85;6.00;;;;;;;;;;5080378;28;20040;-82
2023/08/21 11:21:32;;;;;;;7.53;6.03;;;;;;;;;;5081033;28;20048;-83
2023/08/21 11:23:59;;;;;;;6.80;5.65;;;;;;;;;;5081627;28;20045;-82
2023/08/21 11:26:27;;;;;;;6.63;6.00;;;;;;;;;;5081740;28;20059;-82
2023/08/21 11:28:56;;;;;;;6.25;5.75;;;;;;;;;;5079816;28;20109;-82
2023/08/21 11:31:23;;;;;;;6.13;5.43;;;;;;;;;;5082176;28;20057;-82
2023/08/21 11:33:51;;;;;;;8.20;5.82;;;;;;;;;;5083954;28;20056;-83
2023/08/21 11:36:19;;;;;;;7.30;5.88;;;;;;;;;;5084152;28;20052;-83
2023/08/21 11:39:00;;;;;;;6.97;5.95;;;;;;;;;;5082317;28;20044;-82
2023/08/21 11:41:27;;;;;;;10.60;6.07;;;;;;;;;;5082078;28;20054;-82
2023/08/21 11:43:58;;;;;;;6.45;5.03;;;;;;;;;;5081590;28;20045;-82
2023/08/21 11:46:26;;;;;;;7.78;5.20;;;;;;;;;;5081224;28;20106;-82
2023/08/21 11:48:53;;;;;;;7.78;6.88;;;;;;;;;;5077529;28;20044;-82
2023/08/21 11:51:20;;;;;;;7.13;6.45;;;;;;;;;;5072942;28;20094;-82
2023/08/21 11:53:51;;;;;;;7.72;7.00;;;;;;;;;;5073289;28;20056;-81
2023/08/21 11:56:18;;;;;;;7.10;6.40;;;;;;;;;;5078029;28;20045;-81
2023/08/21 11:58:50;;;;;;;8.20;6.45;;;;;;;;;;5076766;28;20198;-81
2023/08/21 12:01:21;;;;;;;7.07;6.43;;;;;;;;;;5076833;28;20044;-81
2023/08/21 12:03:54;;;;;;;7.72;6.65;;;;;;;;;;5077028;28;20130;-80
2023/08/21 12:06:24;;;;;;;7.88;6.60;;;;;;;;;;5076656;28;20044;-82
2023/08/21 12:08:51;;;;;;;8.20;7.30;;;;;;;;;;5077033;28;20055;-82
2023/08/21 12:11:19;;;;;;;11.75;7.00;;;;;;;;;;5073666;28;21645;-82
2023/08/21 12:13:46;;;;;;;9.35;7.68;;;;;;;;;;5071339;28;20055;-82
2023/08/21 12:16:13;;;;;;;7.10;6.43;;;;;;;;;;5073897;28;20070;-81
2023/08/21 12:18:41;;;;;;;9.02;7.03;;;;;;;;;;5073819;28;20047;-80
2023/08/21 12:21:08;;;;;;;11.30;6.95;;;;;;;;;;5074941;28;20048;-80
2023/08/21 12:23:36;;;;;;;6.47;5.60;;;;;;;;;;5077508;28;20106;-83
2023/08/21 12:26:03;;;;;;;9.57;6.35;;;;;;;;;;5074456;28;20506;-82
2023/08/21 12:28:30;;;;;;;9.57;6.18;;;;;;;;;;5079402;28;20048;-82
2023/08/21 12:30:57;;;;;;;8.30;6.07;;;;;;;;;;5075337;28;20054;-82
2023/08/21 12:33:26;;;;;;;6.28;5.65;;;;;;;;;;5078639;28;20049;-82
2023/08/21 12:35:53;;;;;;;6.88;6.30;;;;;;;;;;5078639;28;20067;-81
2023/08/21 12:38:20;;;;;;;6.40;5.80;;;;;;;;;;5080010;28;20453;-83
2023/08/21 12:40:48;;;;;;;7.88;5.68;;;;;;;;;;5081774;28;20135;-83
2023/08/21 12:43:15;;;;;;;9.30;5.80;;;;;;;;;;5079362;28;20064;-81
2023/08/21 12:45:43;;;;;;;10.73;6.18;;;;;;;;;;5081691;28;20045;-82
2023/08/21 12:48:10;;;;;;;18.58;6.53;;;;;;;;;;5079526;28;20116;-82
2023/08/21 12:50:38;;;;;;;6.40;5.90;;;;;;;;;;5081547;28;20146;-82
2023/08/21 12:53:05;;;;;;;6.53;5.53;;;;;;;;;;5083595;28;20041;-81
2023/08/21 12:55:32;;;;;;;7.13;5.80;;;;;;;;;;5085177;28;20482;-80
2023/08/21 12:57:59;;;;;;;9.50;5.45;;;;;;;;;;5082048;28;20101;-81
2023/08/21 13:00:26;;;;;;;6.05;5.47;;;;;;;;;;5082462;28;20098;-82
2023/08/21 13:02:54;;;;;;;7.45;6.07;;;;;;;;;;5081133;28;20462;-81
2023/08/21 13:05:21;;;;;;;7.53;5.72;;;;;;;;;;5079510;28;20418;-81
2023/08/21 13:07:48;;;;;;;6.75;6.05;;;;;;;;;;5081005;28;20048;-81
2023/08/21 13:10:16;;;;;;;9.20;5.70;;;;;;;;;;5081350;28;20495;-82
2023/08/21 13:12:43;;;;;;;6.25;5.28;;;;;;;;;;5082624;28;20052;-82
2023/08/21 13:15:11;;;;;;;11.80;6.57;;;;;;;;;;5083643;28;20052;-82
2023/08/21 13:17:38;;;;;;;5.45;4.95;;;;;;;;;;5083874;28;20048;-82
2023/08/21 13:20:07;;;;;;;5.32;4.88;;;;;;;;;;5082861;28;20060;-82
2023/08/21 13:22:49;;;;;;;6.45;5.38;;;;;;;;;;5081169;28;20044;-81
2023/08/21 13:25:17;;;;;;;7.50;5.30;;;;;;;;;;5085543;28;20041;-81
2023/08/21 13:27:44;;;;;;;14.85;6.07;;;;;;;;;;5079571;28;20533;-81
2023/08/21 13:30:12;;;;;;;7.78;5.00;;;;;;;;;;5077507;28;20055;-80
2023/08/21 13:32:39;;;;;;;5.07;4.55;;;;;;;;;;5077282;28;20098;-81
2023/08/21 13:35:08;;;;;;;5.28;4.70;;;;;;;;;;5080055;28;20139;-81
2023/08/21 13:37:36;;;;;;;5.70;4.47;;;;;;;;;;5082238;28;20067;-82
2023/08/21 13:40:11;;;;;;;5.15;4.65;;;;;;;;;;5084777;28;20048;-81
2023/08/21 13:42:44;;;;;;;8.18;4.80;;;;;;;;;;5082430;28;20040;-81
2023/08/21 13:45:13;;;;;;;4.68;4.38;;;;;;;;;;5083507;28;20045;-82
2023/08/21 13:47:41;;;;;;;4.70;4.05;;;;;;;;;;5086602;28;20044;-83
2023/08/21 13:50:10;;;;;;;4.15;3.85;;;;;;;;;;5086080;28;20127;-82
2023/08/21 13:52:39;;;;;;;5.88;4.43;;;;;;;;;;5087888;28;20052;-81
2023/08/21 13:55:07;;;;;;;5.00;4.55;;;;;;;;;;5086648;28;20127;-80
2023/08/21 13:57:35;;;;;;;4.43;4.00;;;;;;;;;;5087134;28;20048;-82
2023/08/21 14:00:07;;;;;;;5.05;4.65;;;;;;;;;;5086130;28;20476;-82
2023/08/21 14:02:35;;;;;;;4.78;4.45;;;;;;;;;;5086032;28;20045;-82
2023/08/21 14:05:04;;;;;;;4.20;3.85;;;;;;;;;;5086104;28;20053;-82
2023/08/21 14:07:32;;;;;;;4.65;4.35;;;;;;;;;;5081215;28;20051;-81
2023/08/21 14:09:59;;;;;;;6.10;4.22;;;;;;;;;;5083691;28;20078;-81
2023/08/21 14:12:28;;;;;;;6.85;4.95;;;;;;;;;;5083027;28;20053;-82
2023/08/21 14:14:55;;;;;;;5.72;4.47;;;;;;;;;;5080959;28;20487;-82
2023/08/21 14:17:23;;;;;;;4.50;4.20;;;;;;;;;;5082190;28;20055;-82
2023/08/21 14:19:50;;;;;;;4.85;4.43;;;;;;;;;;5081514;28;20048;-82
2023/08/21 14:22:17;;;;;;;5.47;4.20;;;;;;;;;;5081477;28;20094;-82
2023/08/21 14:24:44;;;;;;;7.28;4.28;;;;;;;;;;5082025;28;20048;-81
2023/08/21 14:27:12;;;;;;;9.77;4.75;;;;;;;;;;5084293;28;20052;-81